sensor_id;sensor_type;location;lat;lon;timestamp;pressure;altitude;pressure_sealevel;temperature;humidity
67818;BME280;54614;47.576;7.524;2022-08-19T00:00:39;98154.41;;;26.12;50.70
67818;BME280;54614;47.576;7.524;2022-08-19T00:03:05;98157.94;;;26.13;50.37
67818;BME280;54614;47.576;7.524;2022-08-19T00:05:32;98160.53;;;26.19;50.57
67818;BME280;54614;47.576;7.524;2022-08-19T00:07:58;98160.28;;;26.21;50.40
67818;BME280;54614;47.576;7.524;2022-08-19T00:10:24;98170.38;;;26.14;50.62
67818;BME280;54614;47.576;7.524;2022-08-19T00:12:50;98174.59;;;26.21;50.52
67818;BME280;54614;47.576;7.524;2022-08-19T00:15:21;98167.56;;;26.20;50.53
67818;BME280;54614;47.576;7.524;2022-08-19T00:17:47;98158.75;;;26.13;50.38
67818;BME280;54614;47.576;7.524;2022-08-19T00:20:19;98168.75;;;26.24;50.58
67818;BME280;54614;47.576;7.524;2022-08-19T00:22:46;98159.81;;;26.12;50.54
67818;BME280;54614;47.576;7.524;2022-08-19T00:25:15;98152.25;;;26.32;50.25
67818;BME280;54614;47.576;7.524;2022-08-19T00:27:41;98156.06;;;26.13;50.70
67818;BME280;54614;47.576;7.524;2022-08-19T00:30:08;98154.88;;;26.09;51.12
67818;BME280;54614;47.576;7.524;2022-08-19T00:32:36;98156.41;;;26.17;50.73
67818;BME280;54614;47.576;7.524;2022-08-19T00:35:02;98158.03;;;26.06;50.84
67818;BME280;54614;47.576;7.524;2022-08-19T00:37:29;98153.84;;;26.22;50.63
67818;BME280;54614;47.576;7.524;2022-08-19T00:39:55;98153.03;;;26.21;50.93
67818;BME280;54614;47.576;7.524;2022-08-19T00:42:22;98161.13;;;26.21;50.69
67818;BME280;54614;47.576;7.524;2022-08-19T00:44:49;98152.66;;;26.18;50.66
67818;BME280;54614;47.576;7.524;2022-08-19T00:47:16;98156.41;;;26.17;50.81
67818;BME280;54614;47.576;7.524;2022-08-19T00:49:51;98154.78;;;26.27;50.47
67818;BME280;54614;47.576;7.524;2022-08-19T00:52:33;98157.13;;;26.24;50.54
67818;BME280;54614;47.576;7.524;2022-08-19T00:55:01;98162.56;;;26.36;50.11
67818;BME280;54614;47.576;7.524;2022-08-19T00:57:38;98156.47;;;26.40;49.98
67818;BME280;54614;47.576;7.524;2022-08-19T01:00:12;98153.28;;;26.31;50.51
67818;BME280;54614;47.576;7.524;2022-08-19T01:02:41;98149.16;;;26.29;50.65
67818;BME280;54614;47.576;7.524;2022-08-19T01:05:13;98154.00;;;26.39;50.12
67818;BME280;54614;47.576;7.524;2022-08-19T01:07:41;98150.38;;;26.33;50.48
67818;BME280;54614;47.576;7.524;2022-08-19T01:10:13;98158.47;;;26.33;50.45
67818;BME280;54614;47.576;7.524;2022-08-19T01:12:40;98163.25;;;26.31;50.45
67818;BME280;54614;47.576;7.524;2022-08-19T01:15:11;98155.72;;;26.21;50.55
67818;BME280;54614;47.576;7.524;2022-08-19T01:17:39;98149.56;;;26.44;50.10
67818;BME280;54614;47.576;7.524;2022-08-19T01:20:11;98146.13;;;26.25;50.33
67818;BME280;54614;47.576;7.524;2022-08-19T01:22:56;98146.88;;;26.44;50.19
67818;BME280;54614;47.576;7.524;2022-08-19T01:25:32;98141.34;;;26.62;49.59
67818;BME280;54614;47.576;7.524;2022-08-19T01:28:00;98138.91;;;26.49;50.05
67818;BME280;54614;47.576;7.524;2022-08-19T01:30:34;98145.81;;;26.57;49.73
67818;BME280;54614;47.576;7.524;2022-08-19T01:33:02;98137.47;;;26.58;49.51
67818;BME280;54614;47.576;7.524;2022-08-19T01:35:31;98142.75;;;26.42;50.15
67818;BME280;54614;47.576;7.524;2022-08-19T01:38:04;98131.63;;;26.38;50.04
67818;BME280;54614;47.576;7.524;2022-08-19T01:40:37;98134.53;;;26.60;49.77
67818;BME280;54614;47.576;7.524;2022-08-19T01:43:05;98129.38;;;26.58;49.55
67818;BME280;54614;47.576;7.524;2022-08-19T01:45:33;98133.63;;;26.54;49.63
67818;BME280;54614;47.576;7.524;2022-08-19T01:48:00;98138.84;;;26.26;50.37
67818;BME280;54614;47.576;7.524;2022-08-19T01:50:26;98143.94;;;26.46;49.91
67818;BME280;54614;47.576;7.524;2022-08-19T01:52:53;98141.94;;;26.41;49.92
67818;BME280;54614;47.576;7.524;2022-08-19T01:55:21;98132.66;;;26.60;49.38
67818;BME280;54614;47.576;7.524;2022-08-19T01:57:56;98150.59;;;26.31;50.29
67818;BME280;54614;47.576;7.524;2022-08-19T02:00:26;98157.66;;;26.32;50.28
67818;BME280;54614;47.576;7.524;2022-08-19T02:02:53;98158.72;;;26.43;49.94
67818;BME280;54614;47.576;7.524;2022-08-19T02:05:20;98152.03;;;26.57;49.78
67818;BME280;54614;47.576;7.524;2022-08-19T02:07:47;98144.75;;;26.46;49.82
67818;BME280;54614;47.576;7.524;2022-08-19T02:10:20;98142.88;;;26.47;50.10
67818;BME280;54614;47.576;7.524;2022-08-19T02:12:47;98148.50;;;26.45;49.84
67818;BME280;54614;47.576;7.524;2022-08-19T02:15:15;98151.22;;;26.57;49.69
67818;BME280;54614;47.576;7.524;2022-08-19T02:17:42;98143.47;;;26.60;49.66
67818;BME280;54614;47.576;7.524;2022-08-19T02:20:09;98141.72;;;26.54;49.76
67818;BME280;54614;47.576;7.524;2022-08-19T02:22:35;98149.22;;;26.52;49.67
67818;BME280;54614;47.576;7.524;2022-08-19T02:25:01;98155.31;;;26.48;50.00
67818;BME280;54614;47.576;7.524;2022-08-19T02:27:28;98152.84;;;26.35;50.39
67818;BME280;54614;47.576;7.524;2022-08-19T02:29:54;98148.38;;;26.40;50.11
67818;BME280;54614;47.576;7.524;2022-08-19T02:32:20;98152.38;;;26.38;50.21
67818;BME280;54614;47.576;7.524;2022-08-19T02:34:47;98151.69;;;26.54;49.69
67818;BME280;54614;47.576;7.524;2022-08-19T02:37:14;98140.19;;;26.35;50.44
67818;BME280;54614;47.576;7.524;2022-08-19T02:39:59;98132.22;;;26.52;49.84
67818;BME280;54614;47.576;7.524;2022-08-19T02:42:26;98133.13;;;26.81;49.19
67818;BME280;54614;47.576;7.524;2022-08-19T02:44:52;98135.38;;;26.60;49.54
67818;BME280;54614;47.576;7.524;2022-08-19T02:47:18;98133.84;;;26.64;49.55
67818;BME280;54614;47.576;7.524;2022-08-19T02:49:45;98146.50;;;26.41;50.17
67818;BME280;54614;47.576;7.524;2022-08-19T02:52:11;98146.75;;;26.62;49.47
67818;BME280;54614;47.576;7.524;2022-08-19T02:54:38;98153.44;;;26.37;50.28
67818;BME280;54614;47.576;7.524;2022-08-19T02:57:04;98154.97;;;26.56;49.76
67818;BME280;54614;47.576;7.524;2022-08-19T02:59:32;98153.19;;;26.38;50.19
67818;BME280;54614;47.576;7.524;2022-08-19T03:01:58;98159.88;;;26.47;50.01
67818;BME280;54614;47.576;7.524;2022-08-19T03:04:24;98151.22;;;26.57;49.41
67818;BME280;54614;47.576;7.524;2022-08-19T03:06:51;98144.97;;;26.68;49.44
67818;BME280;54614;47.576;7.524;2022-08-19T03:09:19;98145.31;;;26.83;48.97
67818;BME280;54614;47.576;7.524;2022-08-19T03:11:46;98136.88;;;26.80;49.01
67818;BME280;54614;47.576;7.524;2022-08-19T03:14:12;98150.16;;;26.58;49.78
67818;BME280;54614;47.576;7.524;2022-08-19T03:16:50;98151.31;;;26.62;49.22
67818;BME280;54614;47.576;7.524;2022-08-19T03:19:19;98151.91;;;26.64;49.45
67818;BME280;54614;47.576;7.524;2022-08-19T03:21:47;98165.03;;;26.49;49.89
67818;BME280;54614;47.576;7.524;2022-08-19T03:24:14;98159.28;;;26.45;49.99
67818;BME280;54614;47.576;7.524;2022-08-19T03:26:44;98163.41;;;26.48;50.00
67818;BME280;54614;47.576;7.524;2022-08-19T03:29:11;98164.56;;;26.52;49.90
67818;BME280;54614;47.576;7.524;2022-08-19T03:31:39;98166.22;;;26.41;50.16
67818;BME280;54614;47.576;7.524;2022-08-19T03:34:06;98169.03;;;26.35;50.33
67818;BME280;54614;47.576;7.524;2022-08-19T03:36:33;98173.59;;;26.69;49.16
67818;BME280;54614;47.576;7.524;2022-08-19T03:39:00;98169.97;;;26.63;49.54
67818;BME280;54614;47.576;7.524;2022-08-19T03:41:33;98170.91;;;26.57;49.79
67818;BME280;54614;47.576;7.524;2022-08-19T03:44:03;98168.19;;;26.92;48.75
67818;BME280;54614;47.576;7.524;2022-08-19T03:46:32;98167.28;;;26.63;49.49
67818;BME280;54614;47.576;7.524;2022-08-19T03:49:03;98164.44;;;26.47;49.87
67818;BME280;54614;47.576;7.524;2022-08-19T03:51:37;98167.63;;;26.55;49.68
67818;BME280;54614;47.576;7.524;2022-08-19T03:54:08;98163.53;;;26.64;49.41
67818;BME280;54614;47.576;7.524;2022-08-19T03:56:37;98153.44;;;26.60;49.46
67818;BME280;54614;47.576;7.524;2022-08-19T03:59:07;98146.75;;;26.62;49.64
67818;BME280;54614;47.576;7.524;2022-08-19T04:01:35;98155.19;;;26.43;50.03
67818;BME280;54614;47.576;7.524;2022-08-19T04:04:02;98156.25;;;26.77;49.08
67818;BME280;54614;47.576;7.524;2022-08-19T04:06:33;98159.16;;;26.75;49.14
67818;BME280;54614;47.576;7.524;2022-08-19T04:09:03;98173.72;;;26.62;49.32
67818;BME280;54614;47.576;7.524;2022-08-19T04:11:53;98169.03;;;26.58;49.66
67818;BME280;54614;47.576;7.524;2022-08-19T04:14:26;98168.91;;;26.53;49.59
67818;BME280;54614;47.576;7.524;2022-08-19T04:16:54;98176.06;;;26.59;49.49
67818;BME280;54614;47.576;7.524;2022-08-19T04:19:20;98187.19;;;26.39;50.15
67818;BME280;54614;47.576;7.524;2022-08-19T04:21:50;98183.69;;;26.50;49.78
67818;BME280;54614;47.576;7.524;2022-08-19T04:24:17;98179.34;;;26.49;49.82
67818;BME280;54614;47.576;7.524;2022-08-19T04:26:45;98183.56;;;26.69;49.34
67818;BME280;54614;47.576;7.524;2022-08-19T04:29:23;98185.09;;;26.64;49.51
67818;BME280;54614;47.576;7.524;2022-08-19T04:31:53;98186.75;;;26.54;49.81
67818;BME280;54614;47.576;7.524;2022-08-19T04:34:22;98178.53;;;26.49;49.90
67818;BME280;54614;47.576;7.524;2022-08-19T04:36:51;98189.44;;;26.54;49.82
67818;BME280;54614;47.576;7.524;2022-08-19T04:39:22;98187.91;;;26.35;50.21
67818;BME280;54614;47.576;7.524;2022-08-19T04:41:48;98195.53;;;26.38;50.29
67818;BME280;54614;47.576;7.524;2022-08-19T04:44:35;98195.97;;;26.35;50.39
67818;BME280;54614;47.576;7.524;2022-08-19T04:47:02;98189.66;;;26.52;49.80
67818;BME280;54614;47.576;7.524;2022-08-19T04:49:30;98190.84;;;26.45;50.07
67818;BME280;54614;47.576;7.524;2022-08-19T04:51:56;98189.56;;;26.59;49.64
67818;BME280;54614;47.576;7.524;2022-08-19T04:54:25;98182.38;;;27.11;48.14
67818;BME280;54614;47.576;7.524;2022-08-19T04:56:53;98181.31;;;27.64;46.75
67818;BME280;54614;47.576;7.524;2022-08-19T04:59:21;98182.13;;;27.65;46.83
67818;BME280;54614;47.576;7.524;2022-08-19T05:01:48;98190.44;;;27.75;46.52
67818;BME280;54614;47.576;7.524;2022-08-19T05:04:19;98186.00;;;27.69;46.62
67818;BME280;54614;47.576;7.524;2022-08-19T05:06:48;98194.09;;;27.28;47.47
67818;BME280;54614;47.576;7.524;2022-08-19T05:09:15;98195.06;;;27.11;48.27
67818;BME280;54614;47.576;7.524;2022-08-19T05:11:41;98195.75;;;26.83;48.77
67818;BME280;54614;47.576;7.524;2022-08-19T05:14:10;98200.69;;;26.62;49.63
67818;BME280;54614;47.576;7.524;2022-08-19T05:16:38;98205.25;;;26.50;49.75
67818;BME280;54614;47.576;7.524;2022-08-19T05:19:05;98211.69;;;26.38;50.18
67818;BME280;54614;47.576;7.524;2022-08-19T05:21:49;98207.25;;;26.43;49.86
67818;BME280;54614;47.576;7.524;2022-08-19T05:24:34;98218.56;;;26.22;50.44
67818;BME280;54614;47.576;7.524;2022-08-19T05:27:01;98218.84;;;26.32;50.03
67818;BME280;54614;47.576;7.524;2022-08-19T05:29:29;98213.81;;;27.29;47.72
67818;BME280;54614;47.576;7.524;2022-08-19T05:31:57;98208.44;;;27.57;46.81
67818;BME280;54614;47.576;7.524;2022-08-19T05:34:25;98220.31;;;27.68;46.28
67818;BME280;54614;47.576;7.524;2022-08-19T05:36:56;98218.50;;;27.74;46.24
67818;BME280;54614;47.576;7.524;2022-08-19T05:39:28;98221.47;;;27.72;46.29
67818;BME280;54614;47.576;7.524;2022-08-19T05:42:00;98227.25;;;27.64;46.86
67818;BME280;54614;47.576;7.524;2022-08-19T05:44:29;98227.88;;;27.83;46.21
67818;BME280;54614;47.576;7.524;2022-08-19T05:47:00;98224.50;;;27.76;46.61
67818;BME280;54614;47.576;7.524;2022-08-19T05:49:29;98231.84;;;27.64;46.63
67818;BME280;54614;47.576;7.524;2022-08-19T05:51:55;98233.81;;;27.68;46.38
67818;BME280;54614;47.576;7.524;2022-08-19T05:54:22;98236.63;;;27.73;46.23
67818;BME280;54614;47.576;7.524;2022-08-19T05:56:50;98235.78;;;27.73;45.98
67818;BME280;54614;47.576;7.524;2022-08-19T05:59:19;98236.13;;;27.76;45.98
67818;BME280;54614;47.576;7.524;2022-08-19T06:01:49;98238.00;;;27.76;46.00
67818;BME280;54614;47.576;7.524;2022-08-19T06:04:19;98235.06;;;27.77;45.74
67818;BME280;54614;47.576;7.524;2022-08-19T06:06:50;98234.97;;;27.72;46.06
67818;BME280;54614;47.576;7.524;2022-08-19T06:09:18;98239.13;;;27.63;46.12
67818;BME280;54614;47.576;7.524;2022-08-19T06:11:52;98243.91;;;27.73;46.32
67818;BME280;54614;47.576;7.524;2022-08-19T06:14:29;98243.31;;;27.71;46.27
67818;BME280;54614;47.576;7.524;2022-08-19T06:16:57;98245.34;;;27.64;46.09
67818;BME280;54614;47.576;7.524;2022-08-19T06:19:26;98251.09;;;27.67;46.04
67818;BME280;54614;47.576;7.524;2022-08-19T06:21:52;98253.41;;;27.75;45.89
67818;BME280;54614;47.576;7.524;2022-08-19T06:24:23;98254.84;;;27.66;45.92
67818;BME280;54614;47.576;7.524;2022-08-19T06:26:52;98253.53;;;27.69;45.96
67818;BME280;54614;47.576;7.524;2022-08-19T06:29:23;98248.97;;;27.69;46.02
67818;BME280;54614;47.576;7.524;2022-08-19T06:31:54;98254.47;;;27.74;45.99
67818;BME280;54614;47.576;7.524;2022-08-19T06:34:21;98252.00;;;27.73;45.80
67818;BME280;54614;47.576;7.524;2022-08-19T06:36:50;98247.38;;;27.85;45.87
67818;BME280;54614;47.576;7.524;2022-08-19T06:39:24;98255.78;;;27.72;45.84
67818;BME280;54614;47.576;7.524;2022-08-19T06:41:55;98257.56;;;27.66;46.30
67818;BME280;54614;47.576;7.524;2022-08-19T06:44:24;98262.97;;;27.66;45.97
67818;BME280;54614;47.576;7.524;2022-08-19T06:46:52;98270.44;;;27.76;45.72
67818;BME280;54614;47.576;7.524;2022-08-19T06:49:18;98266.19;;;27.80;45.63
67818;BME280;54614;47.576;7.524;2022-08-19T06:51:46;98265.03;;;27.76;45.54
67818;BME280;54614;47.576;7.524;2022-08-19T06:54:17;98268.22;;;27.73;45.83
67818;BME280;54614;47.576;7.524;2022-08-19T06:56:44;98268.56;;;27.76;45.61
67818;BME280;54614;47.576;7.524;2022-08-19T06:59:16;98264.22;;;27.75;45.64
67818;BME280;54614;47.576;7.524;2022-08-19T07:01:54;98262.00;;;27.72;45.62
67818;BME280;54614;47.576;7.524;2022-08-19T07:04:24;98260.00;;;27.68;46.02
67818;BME280;54614;47.576;7.524;2022-08-19T07:07:01;98259.06;;;27.74;45.65
67818;BME280;54614;47.576;7.524;2022-08-19T07:09:28;98262.81;;;27.73;45.68
67818;BME280;54614;47.576;7.524;2022-08-19T07:11:55;98258.34;;;27.78;45.43
67818;BME280;54614;47.576;7.524;2022-08-19T07:14:25;98266.69;;;27.77;45.60
67818;BME280;54614;47.576;7.524;2022-08-19T07:16:55;98263.97;;;27.77;45.43
67818;BME280;54614;47.576;7.524;2022-08-19T07:19:23;98266.44;;;27.78;45.33
67818;BME280;54614;47.576;7.524;2022-08-19T07:21:53;98262.69;;;27.79;45.38
67818;BME280;54614;47.576;7.524;2022-08-19T07:24:23;98280.28;;;27.82;45.36
67818;BME280;54614;47.576;7.524;2022-08-19T07:26:52;98287.38;;;27.71;45.34
67818;BME280;54614;47.576;7.524;2022-08-19T07:29:20;98285.72;;;27.70;45.52
67818;BME280;54614;47.576;7.524;2022-08-19T07:31:50;98285.25;;;27.73;45.47
67818;BME280;54614;47.576;7.524;2022-08-19T07:34:17;98291.97;;;27.71;45.63
67818;BME280;54614;47.576;7.524;2022-08-19T07:36:44;98289.75;;;27.68;45.64
67818;BME280;54614;47.576;7.524;2022-08-19T07:39:15;98293.59;;;27.72;45.54
67818;BME280;54614;47.576;7.524;2022-08-19T07:41:43;98299.94;;;27.77;45.41
67818;BME280;54614;47.576;7.524;2022-08-19T07:44:10;98304.75;;;27.75;45.32
67818;BME280;54614;47.576;7.524;2022-08-19T07:46:40;98297.72;;;27.74;45.26
67818;BME280;54614;47.576;7.524;2022-08-19T07:49:08;98300.31;;;27.69;45.20
67818;BME280;54614;47.576;7.524;2022-08-19T07:51:39;98294.19;;;27.74;45.39
67818;BME280;54614;47.576;7.524;2022-08-19T07:54:05;98298.88;;;27.78;45.22
67818;BME280;54614;47.576;7.524;2022-08-19T07:56:31;98307.94;;;27.72;45.54
67818;BME280;54614;47.576;7.524;2022-08-19T07:58:57;98303.94;;;27.75;45.28
67818;BME280;54614;47.576;7.524;2022-08-19T08:01:27;98299.47;;;27.69;45.40
67818;BME280;54614;47.576;7.524;2022-08-19T08:03:55;98293.25;;;27.68;45.48
67818;BME280;54614;47.576;7.524;2022-08-19T08:06:40;98307.59;;;27.69;45.53
67818;BME280;54614;47.576;7.524;2022-08-19T08:09:34;98312.41;;;27.67;45.48
67818;BME280;54614;47.576;7.524;2022-08-19T08:12:07;98313.34;;;27.72;45.38
67818;BME280;54614;47.576;7.524;2022-08-19T08:14:40;98310.06;;;27.70;45.30
67818;BME280;54614;47.576;7.524;2022-08-19T08:17:08;98318.16;;;27.70;45.33
67818;BME280;54614;47.576;7.524;2022-08-19T08:19:35;98334.03;;;27.67;45.43
67818;BME280;54614;47.576;7.524;2022-08-19T08:22:03;98333.69;;;27.63;45.47
67818;BME280;54614;47.576;7.524;2022-08-19T08:24:31;98336.38;;;27.63;45.44
67818;BME280;54614;47.576;7.524;2022-08-19T08:26:59;98334.03;;;27.67;45.44
67818;BME280;54614;47.576;7.524;2022-08-19T08:29:30;98337.78;;;27.66;45.35
67818;BME280;54614;47.576;7.524;2022-08-19T08:31:56;98344.94;;;27.72;45.22
67818;BME280;54614;47.576;7.524;2022-08-19T08:34:23;98338.13;;;27.69;45.27
67818;BME280;54614;47.576;7.524;2022-08-19T08:36:49;98332.50;;;27.71;45.42
67818;BME280;54614;47.576;7.524;2022-08-19T08:39:20;98335.19;;;27.71;45.34
67818;BME280;54614;47.576;7.524;2022-08-19T08:42:08;98338.38;;;27.68;45.35
67818;BME280;54614;47.576;7.524;2022-08-19T08:45:10;98341.06;;;27.68;45.52
67818;BME280;54614;47.576;7.524;2022-08-19T08:47:41;98343.78;;;27.68;45.44
67818;BME280;54614;47.576;7.524;2022-08-19T08:50:37;98348.59;;;27.66;45.44
67818;BME280;54614;47.576;7.524;2022-08-19T08:53:08;98350.25;;;27.67;45.14
67818;BME280;54614;47.576;7.524;2022-08-19T08:55:36;98355.75;;;27.72;45.26
67818;BME280;54614;47.576;7.524;2022-08-19T08:58:14;98363.75;;;27.67;45.32
67818;BME280;54614;47.576;7.524;2022-08-19T09:00:48;98366.31;;;27.73;45.17
67818;BME280;54614;47.576;7.524;2022-08-19T09:03:22;98356.34;;;27.74;44.99
67818;BME280;54614;47.576;7.524;2022-08-19T09:05:53;98357.63;;;27.71;44.80
67818;BME280;54614;47.576;7.524;2022-08-19T09:17:10;98360.22;;;27.66;45.17
67818;BME280;54614;47.576;7.524;2022-08-19T09:19:49;98371.88;;;27.67;45.15
67818;BME280;54614;47.576;7.524;2022-08-19T09:22:15;98371.03;;;27.66;45.10
67818;BME280;54614;47.576;7.524;2022-08-19T09:24:41;98370.56;;;27.69;45.00
67818;BME280;54614;47.576;7.524;2022-08-19T09:27:07;98384.31;;;27.68;45.27
67818;BME280;54614;47.576;7.524;2022-08-19T09:29:33;98381.38;;;27.69;45.07
67818;BME280;54614;47.576;7.524;2022-08-19T09:31:59;98383.25;;;27.69;45.17
67818;BME280;54614;47.576;7.524;2022-08-19T09:34:25;98381.72;;;27.73;44.98
67818;BME280;54614;47.576;7.524;2022-08-19T09:36:51;98388.91;;;27.67;45.43
67818;BME280;54614;47.576;7.524;2022-08-19T09:39:19;98385.13;;;27.68;45.21
67818;BME280;54614;47.576;7.524;2022-08-19T09:41:44;98383.84;;;27.71;45.06
67818;BME280;54614;47.576;7.524;2022-08-19T09:44:10;98381.84;;;27.66;45.27
67818;BME280;54614;47.576;7.524;2022-08-19T09:46:38;98388.06;;;27.67;45.16
67818;BME280;54614;47.576;7.524;2022-08-19T09:49:04;98399.47;;;27.69;45.09
67818;BME280;54614;47.576;7.524;2022-08-19T09:51:33;98392.41;;;27.68;45.07
67818;BME280;54614;47.576;7.524;2022-08-19T09:54:02;98390.06;;;27.71;45.07
67818;BME280;54614;47.576;7.524;2022-08-19T09:56:30;98390.78;;;27.67;45.16
67818;BME280;54614;47.576;7.524;2022-08-19T09:58:59;98400.19;;;27.64;45.14
67818;BME280;54614;47.576;7.524;2022-08-19T10:01:28;98400.19;;;27.64;45.19
67818;BME280;54614;47.576;7.524;2022-08-19T10:03:58;98394.53;;;27.66;45.12
67818;BME280;54614;47.576;7.524;2022-08-19T10:06:26;98406.16;;;27.66;44.77
67818;BME280;54614;47.576;7.524;2022-08-19T10:08:55;98403.22;;;27.68;45.18
67818;BME280;54614;47.576;7.524;2022-08-19T10:11:22;98402.66;;;27.66;45.25
67818;BME280;54614;47.576;7.524;2022-08-19T10:13:48;98408.88;;;27.66;44.86
67818;BME280;54614;47.576;7.524;2022-08-19T10:16:20;98408.53;;;27.63;45.19
67818;BME280;54614;47.576;7.524;2022-08-19T10:18:49;98412.63;;;27.65;45.10
67818;BME280;54614;47.576;7.524;2022-08-19T10:21:24;98410.75;;;27.66;45.24
67818;BME280;54614;47.576;7.524;2022-08-19T10:23:55;98408.63;;;27.68;45.18
67818;BME280;54614;47.576;7.524;2022-08-19T10:26:27;98401.59;;;27.67;44.97
67818;BME280;54614;47.576;7.524;2022-08-19T10:28:54;98409.94;;;27.65;45.21
67818;BME280;54614;47.576;7.524;2022-08-19T10:31:27;98409.69;;;27.67;44.96
67818;BME280;54614;47.576;7.524;2022-08-19T10:33:55;98399.00;;;27.72;45.11
67818;BME280;54614;47.576;7.524;2022-08-19T10:36:32;98407.69;;;27.74;44.91
67818;BME280;54614;47.576;7.524;2022-08-19T10:39:04;98405.81;;;27.74;44.94
67818;BME280;54614;47.576;7.524;2022-08-19T10:41:37;98395.72;;;27.70;45.00
67818;BME280;54614;47.576;7.524;2022-08-19T10:44:08;98395.34;;;27.66;45.17
67818;BME280;54614;47.576;7.524;2022-08-19T10:46:42;98400.19;;;27.64;45.17
67818;BME280;54614;47.576;7.524;2022-08-19T10:49:13;98402.75;;;27.71;44.98
67818;BME280;54614;47.576;7.524;2022-08-19T10:51:41;98393.59;;;27.72;44.95
67818;BME280;54614;47.576;7.524;2022-08-19T10:54:26;98401.69;;;27.72;44.88
67818;BME280;54614;47.576;7.524;2022-08-19T10:57:12;98397.59;;;27.69;45.02
67818;BME280;54614;47.576;7.524;2022-08-19T10:59:39;98396.63;;;27.75;44.88
67818;BME280;54614;47.576;7.524;2022-08-19T11:02:09;98391.94;;;27.71;44.85
67818;BME280;54614;47.576;7.524;2022-08-19T11:04:38;98396.28;;;27.72;44.81
67818;BME280;54614;47.576;7.524;2022-08-19T11:07:05;98396.28;;;27.72;44.95
67818;BME280;54614;47.576;7.524;2022-08-19T11:09:37;98394.31;;;27.67;44.83
67818;BME280;54614;47.576;7.524;2022-08-19T11:12:05;98399.13;;;27.65;45.12
67818;BME280;54614;47.576;7.524;2022-08-19T11:14:32;98394.06;;;27.69;44.94
67818;BME280;54614;47.576;7.524;2022-08-19T11:16:59;98394.88;;;27.69;44.95
67818;BME280;54614;47.576;7.524;2022-08-19T11:19:25;98391.38;;;27.69;45.00
67818;BME280;54614;47.576;7.524;2022-08-19T11:21:52;98396.75;;;27.69;44.96
67818;BME280;54614;47.576;7.524;2022-08-19T11:24:24;98383.72;;;27.66;45.00
67818;BME280;54614;47.576;7.524;2022-08-19T11:26:54;98385.84;;;27.64;45.07
67818;BME280;54614;47.576;7.524;2022-08-19T11:29:24;98387.97;;;27.62;45.05
67818;BME280;54614;47.576;7.524;2022-08-19T11:31:53;98395.25;;;27.61;45.03
67818;BME280;54614;47.576;7.524;2022-08-19T11:34:25;98392.06;;;27.64;45.09
67818;BME280;54614;47.576;7.524;2022-08-19T11:36:54;98390.19;;;27.65;44.85
67818;BME280;54614;47.576;7.524;2022-08-19T11:39:25;98385.59;;;27.65;44.99
67818;BME280;54614;47.576;7.524;2022-08-19T11:41:52;98395.94;;;27.68;44.88
67818;BME280;54614;47.576;7.524;2022-08-19T11:44:18;98396.75;;;27.69;44.92
67818;BME280;54614;47.576;7.524;2022-08-19T11:46:45;98389.72;;;27.68;44.81
67818;BME280;54614;47.576;7.524;2022-08-19T11:49:14;98389.38;;;27.64;45.05
67818;BME280;54614;47.576;7.524;2022-08-19T11:51:42;98398.06;;;27.66;44.87
67818;BME280;54614;47.576;7.524;2022-08-19T11:54:13;98392.41;;;27.68;44.90
67818;BME280;54614;47.576;7.524;2022-08-19T11:56:40;98392.41;;;27.68;44.91
67818;BME280;54614;47.576;7.524;2022-08-19T11:59:06;98390.78;;;27.67;44.85
67818;BME280;54614;47.576;7.524;2022-08-19T12:01:33;98391.38;;;27.69;44.93
67818;BME280;54614;47.576;7.524;2022-08-19T12:04:00;98394.06;;;27.69;44.87
67818;BME280;54614;47.576;7.524;2022-08-19T12:06:31;98395.94;;;27.68;44.84
67818;BME280;54614;47.576;7.524;2022-08-19T12:09:04;98400.06;;;27.71;44.83
67818;BME280;54614;47.576;7.524;2022-08-19T12:11:31;98397.25;;;27.66;44.91
67818;BME280;54614;47.576;7.524;2022-08-19T12:13:57;98401.00;;;27.65;44.91
67818;BME280;54614;47.576;7.524;2022-08-19T12:16:27;98393.72;;;27.65;44.89
67818;BME280;54614;47.576;7.524;2022-08-19T12:18:56;98395.34;;;27.66;45.01
67818;BME280;54614;47.576;7.524;2022-08-19T12:21:27;98389.25;;;27.71;44.77
67818;BME280;54614;47.576;7.524;2022-08-19T12:23:58;98387.50;;;27.65;44.94
67818;BME280;54614;47.576;7.524;2022-08-19T12:26:27;98391.84;;;27.66;44.75
67818;BME280;54614;47.576;7.524;2022-08-19T12:28:54;98395.59;;;27.65;44.79
67818;BME280;54614;47.576;7.524;2022-08-19T12:31:21;98398.16;;;27.59;44.92
67818;BME280;54614;47.576;7.524;2022-08-19T12:33:47;98399.47;;;27.69;44.89
67818;BME280;54614;47.576;7.524;2022-08-19T12:36:15;98393.81;;;27.70;44.97
67818;BME280;54614;47.576;7.524;2022-08-19T12:38:42;98395.72;;;27.70;44.98
67818;BME280;54614;47.576;7.524;2022-08-19T12:41:13;98398.66;;;27.68;44.96
67818;BME280;54614;47.576;7.524;2022-08-19T12:43:41;98399.81;;;27.72;44.67
67818;BME280;54614;47.576;7.524;2022-08-19T12:46:08;98400.19;;;27.64;44.85
67818;BME280;54614;47.576;7.524;2022-08-19T12:48:35;98399.34;;;27.64;44.84
67818;BME280;54614;47.576;7.524;2022-08-19T12:51:10;98401.00;;;27.65;44.72
67818;BME280;54614;47.576;7.524;2022-08-19T12:53:38;98400.41;;;27.63;44.92
67818;BME280;54614;47.576;7.524;2022-08-19T12:56:05;98395.59;;;27.65;45.06
67818;BME280;54614;47.576;7.524;2022-08-19T12:58:32;98402.06;;;27.64;44.78
67818;BME280;54614;47.576;7.524;2022-08-19T13:01:07;98404.28;;;27.67;44.83
67818;BME280;54614;47.576;7.524;2022-08-19T13:03:33;98409.09;;;27.65;44.81
67818;BME280;54614;47.576;7.524;2022-08-19T13:05:59;98405.34;;;27.66;45.04
67818;BME280;54614;47.576;7.524;2022-08-19T13:08:25;98407.69;;;27.62;44.93
67818;BME280;54614;47.576;7.524;2022-08-19T13:10:51;98407.00;;;27.67;44.83
67818;BME280;54614;47.576;7.524;2022-08-19T13:13:19;98410.75;;;27.66;44.98
67818;BME280;54614;47.576;7.524;2022-08-19T13:15:45;98406.03;;;27.73;44.92
67818;BME280;54614;47.576;7.524;2022-08-19T13:18:12;98410.41;;;27.62;44.76
67818;BME280;54614;47.576;7.524;2022-08-19T13:20:39;98406.88;;;27.62;44.92